Time;durP1;ratioP1;P1;durP2;ratioP2;P2;SDS_P1;SDS_P2;PMS_P1;PMS_P2;Temp;Humidity;BMP_temperature;BMP_pressure;BME280_temperature;BME280_humidity;BME280_pressure;Samples;Min_cycle;Max_cycle;Signal;HPM_P1;HPM_P2
2023/01/15 00:00:21;;;;;;;15.87;11.70;;;;;;;8.16;100.00;100082.31;5034306;28;20243;-67
2023/01/15 00:02:48;;;;;;;17.93;12.33;;;;;;;8.08;100.00;100082.34;5033022;28;20205;-68
2023/01/15 00:05:15;;;;;;;16.20;12.13;;;;;;;8.14;100.00;100077.22;5044758;28;20270;-68
2023/01/15 00:07:43;;;;;;;15.13;11.53;;;;;;;8.17;100.00;100084.00;5054123;28;20256;-68
2023/01/15 00:10:11;;;;;;;15.60;10.83;;;;;;;8.24;100.00;100085.00;5053998;28;20193;-68
2023/01/15 00:12:37;;;;;;;13.90;11.53;;;;;;;8.30;100.00;100084.34;5053621;28;20254;-67
2023/01/15 00:15:05;;;;;;;12.77;11.37;;;;;;;8.35;100.00;100089.97;5043105;28;20669;-67
2023/01/15 00:17:32;;;;;;;13.47;11.23;;;;;;;8.31;100.00;100088.66;5033874;28;20193;-68
2023/01/15 00:19:58;;;;;;;13.57;10.77;;;;;;;8.17;100.00;100094.59;5033644;28;20201;-68
2023/01/15 00:22:25;;;;;;;12.90;10.83;;;;;;;7.85;100.00;100086.63;5034454;28;20639;-68
2023/01/15 00:27:42;;;;;;;12.90;10.80;;;;;;;7.82;100.00;100093.09;5033742;28;20648;-68
2023/01/15 00:30:12;;;;;;;13.10;10.87;;;;;;;7.93;100.00;100084.00;5040302;28;20279;-68
2023/01/15 00:32:38;;;;;;;13.50;10.33;;;;;;;7.94;100.00;100085.66;5050810;28;20190;-68
2023/01/15 00:35:06;;;;;;;12.60;10.57;;;;;;;7.85;100.00;100082.19;5033386;28;20646;-67
2023/01/15 00:37:33;;;;;;;15.87;11.40;;;;;;;7.92;100.00;100082.34;5033161;28;20591;-67
2023/01/15 00:40:01;;;;;;;13.47;11.30;;;;;;;7.96;100.00;100084.47;5033568;28;20189;-67
2023/01/15 00:42:28;;;;;;;10.80;9.70;;;;;;;8.06;100.00;100089.63;5033483;28;20568;-68
2023/01/15 00:44:54;;;;;;;14.07;10.20;;;;;;;8.09;100.00;100084.00;5035987;28;20250;-67
2023/01/15 00:47:21;;;;;;;12.63;10.80;;;;;;;8.16;100.00;100090.25;5052907;28;20196;-67
2023/01/15 00:49:49;;;;;;;11.07;9.47;;;;;;;8.22;100.00;100076.41;5053008;28;20193;-68
2023/01/15 00:52:16;;;;;;;10.83;9.73;;;;;;;8.27;100.00;100072.28;5052597;28;20211;-68
2023/01/15 00:54:43;;;;;;;11.33;9.67;;;;;;;8.33;100.00;100081.38;5053145;28;20189;-68
2023/01/15 00:57:11;;;;;;;11.60;10.40;;;;;;;8.26;100.00;100081.22;5049479;28;20208;-68
2023/01/15 00:59:37;;;;;;;11.57;9.50;;;;;;;8.25;100.00;100076.09;5033245;28;20288;-67
2023/01/15 01:02:04;;;;;;;10.60;9.50;;;;;;;8.27;100.00;100072.28;5032793;28;20251;-68
2023/01/15 01:04:31;;;;;;;12.03;9.13;;;;;;;8.30;100.00;100079.06;5032817;28;20589;-67
2023/01/15 01:06:58;;;;;;;11.37;9.23;;;;;;;8.32;100.00;100074.41;5034496;28;20572;-67
2023/01/15 01:09:24;;;;;;;10.27;9.27;;;;;;;8.23;100.00;100070.97;5052150;28;20198;-67
2023/01/15 01:11:51;;;;;;;13.37;10.27;;;;;;;8.16;100.00;100075.22;5052814;28;20254;-67
2023/01/15 01:14:19;;;;;;;11.70;9.53;;;;;;;8.16;100.00;100080.53;5052195;28;20218;-67
2023/01/15 01:16:46;;;;;;;13.17;9.53;;;;;;;8.11;100.00;100087.28;5053209;28;20260;-68
2023/01/15 01:19:15;;;;;;;10.63;9.53;;;;;;;8.16;100.00;100079.69;5052416;28;20222;-68
2023/01/15 01:21:43;;;;;;;10.63;9.57;;;;;;;8.04;100.00;100078.38;5055890;28;20200;-68
2023/01/15 01:24:11;;;;;;;11.17;10.07;;;;;;;8.12;100.00;100073.06;5051260;28;20290;-68
2023/01/15 01:26:38;;;;;;;11.50;9.93;;;;;;;8.20;100.00;100075.72;5052490;28;20272;-68
2023/01/15 01:29:05;;;;;;;14.63;10.20;;;;;;;8.22;100.00;100079.91;5050559;28;20201;-68
2023/01/15 01:31:33;;;;;;;13.73;10.70;;;;;;;8.27;100.00;100074.09;5051227;28;20246;-68
2023/01/15 01:34:00;;;;;;;13.77;10.97;;;;;;;8.30;100.00;100068.47;5052071;28;20246;-68
2023/01/15 01:36:29;;;;;;;10.97;9.63;;;;;;;8.12;100.00;100070.41;5052455;28;20200;-70
2023/01/15 01:38:56;;;;;;;13.50;10.80;;;;;;;8.12;100.00;100070.41;5052280;28;20218;-68
2023/01/15 01:41:23;;;;;;;15.00;10.90;;;;;;;8.20;100.00;100070.41;5032637;28;20255;-68
2023/01/15 01:43:54;;;;;;;12.20;10.07;;;;;;;8.26;100.00;100072.44;5031704;28;20256;-68
2023/01/15 01:46:20;;;;;;;15.70;10.83;;;;;;;8.31;100.00;100062.19;5032335;28;20217;-68
2023/01/15 01:48:50;;;;;;;13.40;10.83;;;;;;;8.35;100.00;100068.78;5032375;28;20193;-68
2023/01/15 01:51:19;;;;;;;14.53;10.00;;;;;;;8.33;100.00;100068.94;5032166;28;20193;-68
2023/01/15 01:53:46;;;;;;;11.33;10.23;;;;;;;8.15;100.00;100068.28;5032203;28;20189;-68
2023/01/15 01:56:16;;;;;;;15.13;11.03;;;;;;;8.12;100.00;100065.13;5031919;28;20199;-68
2023/01/15 01:58:45;;;;;;;12.80;10.37;;;;;;;8.09;100.00;100061.00;5031801;28;20646;-67
2023/01/15 02:01:12;;;;;;;12.47;10.17;;;;;;;8.06;100.00;100063.16;5041543;28;20188;-68
2023/01/15 02:03:39;;;;;;;13.13;11.50;;;;;;;7.89;100.00;100061.53;5046715;28;20185;-68
2023/01/15 02:06:09;;;;;;;14.77;10.53;;;;;;;7.73;100.00;100061.50;5032104;28;20216;-67
2023/01/15 02:08:38;;;;;;;15.07;11.73;;;;;;;7.78;100.00;100065.31;5032276;28;20185;-68
2023/01/15 02:11:06;;;;;;;15.10;11.80;;;;;;;7.87;100.00;100063.47;5032140;28;20232;-68
2023/01/15 02:13:37;;;;;;;14.07;11.40;;;;;;;7.89;100.00;100072.94;5048668;28;20262;-68
2023/01/15 02:16:11;;;;;;;15.43;11.03;;;;;;;7.94;100.00;100059.19;5051812;28;20196;-68
2023/01/15 02:18:46;;;;;;;14.73;11.40;;;;;;;7.98;100.00;100055.22;5052013;28;20580;-68
2023/01/15 02:21:23;;;;;;;15.17;12.47;;;;;;;8.00;100.00;100050.63;5050930;28;20188;-68
2023/01/15 02:24:07;;;;;;;15.37;11.60;;;;;;;8.05;100.00;100061.53;5033474;28;20232;-68
2023/01/15 02:27:03;;;;;;;15.70;12.23;;;;;;;7.87;100.00;100058.19;5034507;28;20705;-68
2023/01/15 02:29:38;;;;;;;18.93;12.53;;;;;;;7.89;100.00;100062.34;5037551;28;20612;-68
2023/01/15 02:32:10;;;;;;;15.53;10.23;;;;;;;7.92;100.00;100045.31;5041650;28;20186;-68
2023/01/15 02:34:43;;;;;;;14.40;10.37;;;;;;;8.02;100.00;100056.56;5035950;28;20190;-68
2023/01/15 02:37:14;;;;;;;12.47;10.37;;;;;;;8.08;100.00;100050.63;5035877;28;20541;-68
2023/01/15 02:39:44;;;;;;;12.40;10.10;;;;;;;7.98;100.00;100049.94;5055763;28;20621;-68
2023/01/15 02:42:14;;;;;;;11.07;9.30;;;;;;;8.04;100.00;100054.59;5037745;28;20204;-68
2023/01/15 02:44:44;;;;;;;10.20;9.10;;;;;;;8.01;100.00;100049.63;5035703;28;20193;-68
2023/01/15 02:47:12;;;;;;;11.53;9.53;;;;;;;7.91;100.00;100059.53;5036264;28;20286;-68
2023/01/15 02:49:42;;;;;;;10.50;9.20;;;;;;;7.84;100.00;100058.53;5035237;28;20216;-68
2023/01/15 02:52:13;;;;;;;9.27;8.23;;;;;;;7.84;100.00;100042.69;5035497;28;20186;-68
2023/01/15 02:54:46;;;;;;;9.97;7.87;;;;;;;7.86;100.00;100045.97;5046400;28;20192;-68
2023/01/15 02:57:16;;;;;;;9.00;8.03;;;;;;;7.93;100.00;100052.25;5055489;28;20192;-68
2023/01/15 02:59:47;;;;;;;10.13;9.00;;;;;;;7.81;100.00;100054.41;5055314;28;20188;-68
2023/01/15 03:02:19;;;;;;;10.17;8.67;;;;;;;7.92;100.00;100051.41;5055122;28;20184;-68
2023/01/15 03:04:51;;;;;;;9.97;9.07;;;;;;;7.90;100.00;100058.72;5054160;28;20187;-68
2023/01/15 03:07:23;;;;;;;10.50;9.50;;;;;;;7.78;100.00;100051.25;5055441;28;20208;-68
2023/01/15 03:09:51;;;;;;;11.27;10.13;;;;;;;7.84;100.00;100053.25;5054842;28;20190;-68
2023/01/15 03:12:24;;;;;;;10.97;9.60;;;;;;;7.93;100.00;100057.56;5050329;28;20259;-68
2023/01/15 03:15:02;;;;;;;11.87;9.77;;;;;;;8.01;100.00;100046.97;5039570;28;20197;-68
2023/01/15 03:17:36;;;;;;;14.30;11.53;;;;;;;8.04;100.00;100044.00;5055908;28;20537;-68
2023/01/15 03:20:10;;;;;;;13.37;11.00;;;;;;;8.03;100.00;100051.09;5055015;28;20185;-68
2023/01/15 03:22:42;;;;;;;15.77;11.30;;;;;;;8.07;100.00;100056.88;5054381;28;20191;-68
2023/01/15 03:25:13;;;;;;;14.13;11.43;;;;;;;8.08;100.00;100050.63;5055012;28;20250;-68
2023/01/15 03:27:41;;;;;;;18.27;12.13;;;;;;;8.05;100.00;100054.38;5055206;28;20214;-68
2023/01/15 03:30:11;;;;;;;14.93;11.47;;;;;;;8.00;100.00;100043.47;5047432;28;20315;-69
2023/01/15 03:32:39;;;;;;;17.27;12.77;;;;;;;8.05;100.00;100046.44;5052103;28;20567;-68
2023/01/15 03:35:07;;;;;;;18.53;13.30;;;;;;;8.01;100.00;100039.84;5054367;28;20200;-68
2023/01/15 03:37:33;;;;;;;18.77;13.20;;;;;;;7.97;100.00;100038.53;5054990;28;20207;-68
2023/01/15 03:40:00;;;;;;;18.67;13.43;;;;;;;8.00;100.00;100027.63;5054290;28;20250;-68
2023/01/15 03:42:40;;;;;;;18.57;14.00;;;;;;;7.98;100.00;100042.84;5038295;28;20241;-67
2023/01/15 03:45:15;;;;;;;20.17;13.53;;;;;;;7.86;100.00;100040.69;5034364;28;20184;-68
2023/01/15 03:47:50;;;;;;;18.50;13.43;;;;;;;7.58;100.00;100036.69;5038369;28;20214;-68
2023/01/15 03:50:24;;;;;;;19.60;13.90;;;;;;;7.46;100.00;100044.13;5034629;28;20254;-68
2023/01/15 03:53:00;;;;;;;22.37;14.20;;;;;;;7.61;100.00;100041.66;5035565;28;20323;-68
2023/01/15 03:55:35;;;;;;;18.03;12.80;;;;;;;7.60;100.00;100045.31;5034478;28;20192;-68
2023/01/15 03:58:08;;;;;;;16.87;12.30;;;;;;;7.42;100.00;100041.94;5034543;28;20215;-68
2023/01/15 04:00:41;;;;;;;18.37;13.43;;;;;;;7.57;100.00;100045.63;5033891;28;20188;-68
2023/01/15 04:03:11;;;;;;;16.13;12.50;;;;;;;7.67;100.00;100052.41;5045926;28;20185;-68
2023/01/15 04:05:40;;;;;;;18.63;13.23;;;;;;;7.62;100.00;100048.59;5054060;28;20196;-68
2023/01/15 04:08:08;;;;;;;17.90;14.23;;;;;;;7.58;100.00;100053.38;5053150;28;20192;-68
2023/01/15 04:10:35;;;;;;;20.77;13.73;;;;;;;7.60;100.00;100050.59;5049058;28;20247;-68
2023/01/15 04:13:01;;;;;;;16.87;12.43;;;;;;;7.68;100.00;100053.25;5033881;28;20228;-68
2023/01/15 04:15:28;;;;;;;16.70;12.80;;;;;;;7.78;100.00;100053.91;5033773;28;20657;-68
2023/01/15 04:17:56;;;;;;;19.60;13.93;;;;;;;7.88;100.00;100054.56;5033897;28;20201;-68
2023/01/15 04:20:23;;;;;;;17.70;13.47;;;;;;;7.97;100.00;100058.88;5049649;28;20192;-68
2023/01/15 04:22:49;;;;;;;17.63;12.60;;;;;;;7.96;100.00;100062.50;5053183;28;20220;-67
2023/01/15 04:25:16;;;;;;;14.13;12.03;;;;;;;7.96;100.00;100071.25;5053234;28;20193;-68
2023/01/15 04:27:42;;;;;;;17.33;12.37;;;;;;;7.75;100.00;100067.44;5053172;28;20707;-69
2023/01/15 04:30:11;;;;;;;17.80;12.83;;;;;;;7.70;100.00;100067.94;5051146;28;20693;-69
2023/01/15 04:32:37;;;;;;;19.70;13.47;;;;;;;7.76;100.00;100066.47;5053759;28;20356;-69
2023/01/15 04:35:06;;;;;;;20.20;13.90;;;;;;;7.67;100.00;100072.75;5053631;28;20195;-68
2023/01/15 04:37:33;;;;;;;19.77;13.47;;;;;;;7.71;100.00;100071.41;5052730;28;20192;-69
2023/01/15 04:39:59;;;;;;;22.17;14.57;;;;;;;7.79;100.00;100077.53;5053007;28;20196;-68
2023/01/15 04:45:11;;;;;;;23.87;14.97;;;;;;;7.75;100.00;100070.09;5052830;28;20250;-68
2023/01/15 04:47:37;;;;;;;24.77;14.93;;;;;;;7.86;100.00;100075.06;5047670;28;20223;-68
2023/01/15 04:50:06;;;;;;;24.60;14.67;;;;;;;7.69;100.00;100074.25;5032727;28;20197;-68
2023/01/15 04:52:33;;;;;;;28.87;14.83;;;;;;;7.78;100.00;100077.69;5033954;28;20253;-69
2023/01/15 04:55:00;;;;;;;26.90;15.40;;;;;;;7.84;100.00;100079.69;5032885;28;20673;-69
2023/01/15 04:57:26;;;;;;;26.47;15.83;;;;;;;7.86;100.00;100075.06;5032913;28;20677;-69
2023/01/15 04:59:53;;;;;;;24.53;15.50;;;;;;;7.82;100.00;100081.66;5033269;28;20581;-69
2023/01/15 05:02:20;;;;;;;24.00;14.63;;;;;;;7.91;100.00;100075.38;5033216;28;20205;-68
2023/01/15 05:04:46;;;;;;;20.33;14.13;;;;;;;7.96;100.00;100087.13;5033102;28;20323;-69
2023/01/15 05:07:14;;;;;;;26.17;15.20;;;;;;;7.89;100.00;100094.09;5043825;28;20708;-68
2023/01/15 05:09:41;;;;;;;26.10;15.00;;;;;;;7.63;100.00;100082.00;5052818;28;20196;-69
2023/01/15 05:12:08;;;;;;;26.07;14.60;;;;;;;7.58;100.00;100087.75;5041034;28;20251;-69
2023/01/15 05:14:35;;;;;;;32.33;15.20;;;;;;;7.58;100.00;100084.28;5033104;28;20255;-69
2023/01/15 05:17:02;;;;;;;32.73;16.27;;;;;;;7.67;100.00;100084.13;5032526;28;20197;-69
2023/01/15 05:19:28;;;;;;;35.03;15.93;;;;;;;7.70;100.00;100085.63;5032282;28;20190;-68
2023/01/15 05:21:55;;;;;;;31.30;16.53;;;;;;;7.58;100.00;100084.28;5032113;28;20197;-69
2023/01/15 05:24:23;;;;;;;31.40;16.63;;;;;;;7.71;100.00;100079.34;5035783;28;20224;-69
2023/01/15 05:26:50;;;;;;;29.77;15.83;;;;;;;7.74;100.00;100084.31;5049903;28;20655;-69
2023/01/15 05:29:16;;;;;;;32.17;16.20;;;;;;;7.73;100.00;100085.31;5052543;28;20192;-69
2023/01/15 05:31:43;;;;;;;34.00;16.67;;;;;;;7.82;100.00;100100.19;5052140;28;20246;-69
2023/01/15 05:34:11;;;;;;;31.47;15.73;;;;;;;7.88;100.00;100092.41;5052260;28;20196;-69
2023/01/15 05:36:37;;;;;;;31.87;14.20;;;;;;;7.93;100.00;100094.56;5050880;28;20196;-69
2023/01/15 05:39:04;;;;;;;29.67;15.70;;;;;;;7.87;100.00;100096.06;5051984;28;20726;-69
2023/01/15 05:41:51;;;;;;;24.70;15.03;;;;;;;7.89;100.00;100102.03;5051951;28;20193;-68
2023/01/15 05:44:21;;;;;;;23.23;14.33;;;;;;;7.89;100.00;100095.91;5040796;28;20195;-68
2023/01/15 05:46:49;;;;;;;28.37;15.33;;;;;;;7.75;100.00;100092.06;5032313;28;20224;-67
2023/01/15 05:49:17;;;;;;;25.33;14.37;;;;;;;7.78;100.00;100097.03;5031899;28;20193;-67
2023/01/15 05:51:44;;;;;;;23.47;13.87;;;;;;;7.70;100.00;100098.84;5031978;28;20201;-67
2023/01/15 05:54:13;;;;;;;26.53;14.10;;;;;;;7.48;100.00;100107.41;5041252;28;20246;-68
2023/01/15 05:56:42;;;;;;;26.20;14.93;;;;;;;7.48;100.00;100104.75;5052099;28;20271;-68
2023/01/15 05:59:09;;;;;;;21.03;13.10;;;;;;;7.57;100.00;100098.50;5051068;28;20664;-69
2023/01/15 06:01:36;;;;;;;28.07;13.93;;;;;;;7.64;100.00;100102.16;5032190;28;20189;-68
2023/01/15 06:04:05;;;;;;;22.63;13.80;;;;;;;7.58;100.00;100102.78;5031961;28;20193;-68
2023/01/15 06:06:32;;;;;;;18.77;13.00;;;;;;;7.68;100.00;100100.84;5031914;28;20193;-67
2023/01/15 06:08:59;;;;;;;18.63;12.30;;;;;;;7.64;100.00;100110.09;5032993;28;20197;-69
2023/01/15 06:11:26;;;;;;;15.40;11.27;;;;;;;7.70;100.00;100104.13;5031886;28;20553;-70
2023/01/15 06:13:54;;;;;;;14.10;11.33;;;;;;;7.54;100.00;100098.81;5031778;28;20197;-69
2023/01/15 06:16:21;;;;;;;15.33;11.80;;;;;;;7.46;100.00;100102.25;5031724;28;20286;-69
2023/01/15 06:18:47;;;;;;;12.47;10.70;;;;;;;7.54;100.00;100097.00;5034638;28;20695;-68
2023/01/15 06:21:15;;;;;;;14.13;10.23;;;;;;;7.65;100.00;100101.16;5040971;28;20193;-69
2023/01/15 06:23:42;;;;;;;17.03;10.77;;;;;;;7.68;100.00;100099.00;5051404;28;20301;-70
2023/01/15 06:26:12;;;;;;;13.87;10.33;;;;;;;7.74;100.00;100100.16;5051563;28;20335;-71
2023/01/15 06:28:39;;;;;;;13.93;10.37;;;;;;;7.76;100.00;100090.28;5051999;28;20209;-70
2023/01/15 06:31:08;;;;;;;12.00;9.90;;;;;;;7.85;100.00;100102.50;5048598;28;20193;-70
2023/01/15 06:33:35;;;;;;;11.90;10.60;;;;;;;7.76;100.00;100098.19;5051131;28;20662;-70
2023/01/15 06:36:04;;;;;;;16.10;11.23;;;;;;;7.68;100.00;100079.69;5050662;28;20226;-70
2023/01/15 06:38:30;;;;;;;11.43;9.87;;;;;;;7.87;100.00;100108.44;5050480;28;20292;-69
2023/01/15 06:40:59;;;;;;;15.10;9.90;;;;;;;7.90;100.00;100110.78;5050993;28;20265;-71
2023/01/15 06:48:55;;;;;;;11.50;9.07;;;;;;;8.04;100.00;100112.78;5050703;28;20195;-69
2023/01/15 06:51:22;;;;;;;10.57;9.40;;;;;;;8.01;100.00;100124.50;5036997;28;20251;-68
2023/01/15 06:53:49;;;;;;;14.00;9.77;;;;;;;8.07;100.00;100117.72;5041680;28;20254;-69
2023/01/15 06:56:15;;;;;;;11.10;9.60;;;;;;;8.09;98.87;100118.41;5050579;28;20646;-69
2023/01/15 06:58:42;;;;;;;13.40;9.90;;;;;;;8.07;98.84;100117.72;5051212;28;20246;-69
2023/01/15 07:01:12;;;;;;;9.47;8.53;;;;;;;8.01;99.38;100119.19;5043157;28;20910;-70
2023/01/15 07:03:39;;;;;;;11.57;8.93;;;;;;;8.04;99.35;100115.44;5040006;28;20189;-68
2023/01/15 07:06:07;;;;;;;11.23;9.10;;;;;;;8.10;98.93;100120.03;5040167;28;20257;-69
2023/01/15 07:08:33;;;;;;;13.03;9.63;;;;;;;8.10;99.22;100122.69;5030603;28;20228;-69
2023/01/15 07:11:04;;;;;;;10.10;9.10;;;;;;;8.06;98.11;100126.66;5031520;28;20284;-67
2023/01/15 07:13:31;;;;;;;196.67;73.80;;;;;;;8.47;100.00;100117.75;5035900;28;20247;-68
2023/01/15 07:16:00;;;;;;;16.17;11.57;;;;;;;9.05;100.00;100105.00;5054565;28;20250;-70
2023/01/15 07:18:30;;;;;;;13.63;10.40;;;;;;;8.87;99.58;100117.69;5054712;28;20254;-69
2023/01/15 07:20:58;;;;;;;18.77;10.20;;;;;;;8.81;98.21;100123.63;5054219;28;20268;-68
2023/01/15 07:23:26;;;;;;;16.93;10.73;;;;;;;8.78;98.42;100122.16;5054171;28;20653;-68
2023/01/15 07:25:53;;;;;;;17.37;12.03;;;;;;;8.78;98.05;100129.28;5045533;28;20626;-71
2023/01/15 07:28:23;;;;;;;13.30;10.53;;;;;;;8.70;96.55;100129.31;5054563;28;20223;-70
2023/01/15 07:30:49;;;;;;;13.70;11.60;;;;;;;8.76;96.61;100128.63;5053585;28;20251;-74
2023/01/15 07:33:16;;;;;;;13.80;11.67;;;;;;;8.73;96.18;100121.84;5053775;28;20196;-71
2023/01/15 07:35:44;;;;;;;16.53;11.20;;;;;;;8.81;96.01;100128.94;5054482;28;20250;-70
2023/01/15 07:38:11;;;;;;;20.47;13.97;;;;;;;8.80;95.94;100122.00;5040290;28;20486;-71
2023/01/15 07:40:38;;;;;;;17.93;11.83;;;;;;;8.83;95.06;100130.41;5034375;28;20209;-70
2023/01/15 07:51:18;;;;;;;25.47;15.90;;;;;;;8.71;94.32;100138.91;5039694;28;20222;-71
2023/01/15 07:53:45;;;;;;;18.83;13.70;;;;;;;8.72;94.00;100140.53;5053783;28;20262;-71
2023/01/15 07:56:13;;;;;;;21.93;16.10;;;;;;;8.75;94.60;100140.22;5053993;28;20197;-74
2023/01/15 07:58:39;;;;;;;16.40;13.17;;;;;;;8.80;94.16;100133.41;5052113;28;20197;-74
2023/01/15 08:01:06;;;;;;;14.23;11.27;;;;;;;8.81;94.00;100145.66;5052774;28;20246;-73
2023/01/15 08:03:33;;;;;;;13.70;12.20;;;;;;;8.73;93.78;100144.84;5052759;28;20197;-74
2023/01/15 08:06:00;;;;;;;16.37;11.70;;;;;;;8.78;94.00;100147.84;5052558;28;20192;-74
2023/01/15 08:08:28;;;;;;;20.33;15.50;;;;;;;8.83;93.79;100150.78;5042119;28;20220;-74
2023/01/15 08:16:35;;;;;;;15.27;12.17;;;;;;;8.96;93.94;100153.75;5031914;28;20201;-75
2023/01/15 08:19:02;;;;;;;16.33;11.13;;;;;;;9.00;94.22;100144.47;5033679;28;20197;-73
2023/01/15 08:21:29;;;;;;;14.10;11.17;;;;;;;9.05;93.57;100147.41;5049394;28;20242;-74
2023/01/15 08:23:57;;;;;;;21.23;15.90;;;;;;;9.01;92.14;100151.41;5052368;28;20278;-74
2023/01/15 08:26:23;;;;;;;21.70;15.23;;;;;;;8.95;93.57;100144.16;5052820;28;20276;-74
2023/01/15 08:28:50;;;;;;;16.00;12.87;;;;;;;9.01;93.77;100143.44;5043692;28;20225;-74
2023/01/15 08:31:17;;;;;;;14.83;12.30;;;;;;;9.05;93.74;100142.13;5036290;28;20243;-74
2023/01/15 08:33:43;;;;;;;13.67;12.23;;;;;;;9.07;92.87;100145.44;5032802;28;20193;-73
2023/01/15 08:36:10;;;;;;;15.07;12.03;;;;;;;8.73;92.74;100148.31;5033059;28;20619;-74
2023/01/15 08:38:37;;;;;;;16.77;13.23;;;;;;;8.80;93.43;100149.31;5038302;28;20266;-74
2023/01/15 08:41:05;;;;;;;18.57;12.97;;;;;;;8.73;92.75;100147.47;5052537;28;20742;-74
2023/01/15 08:43:32;;;;;;;14.67;13.03;;;;;;;8.84;93.38;100149.78;5052333;28;20557;-74
2023/01/15 08:46:01;;;;;;;14.50;12.17;;;;;;;8.91;93.61;100146.28;5052070;28;20280;-74
2023/01/15 08:48:29;;;;;;;13.67;12.27;;;;;;;8.98;92.98;100146.44;5053009;28;20650;-72
2023/01/15 08:50:56;;;;;;;18.00;12.87;;;;;;;9.04;92.77;100145.78;5044958;28;20185;-72
2023/01/15 08:53:24;;;;;;;16.00;12.93;;;;;;;9.11;93.47;100136.16;5032304;28;20197;-73
2023/01/15 08:55:51;;;;;;;17.13;13.47;;;;;;;9.24;92.74;100131.13;5032322;28;20189;-73
2023/01/15 08:58:19;;;;;;;16.73;13.90;;;;;;;9.31;92.60;100134.75;5032482;28;20255;-73
2023/01/15 09:00:47;;;;;;;18.37;15.30;;;;;;;9.26;91.62;100134.41;5051642;28;20192;-73
2023/01/15 09:03:14;;;;;;;27.13;15.50;;;;;;;9.32;91.59;100133.75;5052517;28;20220;-73
2023/01/15 09:05:40;;;;;;;23.00;15.50;;;;;;;9.26;91.61;100123.81;5051607;28;20664;-73
2023/01/15 09:08:07;;;;;;;21.70;15.47;;;;;;;9.37;91.07;100140.19;5052301;28;20270;-73
2023/01/15 09:10:34;;;;;;;19.73;16.03;;;;;;;9.33;90.12;100132.75;5034445;28;20193;-73
2023/01/15 09:13:01;;;;;;;21.60;15.73;;;;;;;9.01;91.88;100131.03;5031698;28;20660;-73
2023/01/15 09:15:31;;;;;;;24.97;17.50;;;;;;;9.15;92.07;100122.38;5032369;28;20193;-74
2023/01/15 09:17:58;;;;;;;20.47;16.57;;;;;;;9.01;91.60;100124.91;5032301;28;20263;-73
2023/01/15 09:20:25;;;;;;;23.57;15.77;;;;;;;8.81;92.13;100118.34;5033889;28;20255;-73
2023/01/15 09:22:52;;;;;;;25.27;16.47;;;;;;;8.50;93.72;100114.78;5051314;28;20232;-73
2023/01/15 09:25:22;;;;;;;26.80;16.17;;;;;;;8.47;94.93;100120.41;5052360;28;20181;-73
2023/01/15 09:27:49;;;;;;;24.63;17.13;;;;;;;8.55;94.04;100110.63;5052144;28;20691;-75
2023/01/15 09:30:18;;;;;;;25.30;16.13;;;;;;;8.63;93.66;100115.91;5052157;28;20208;-73
2023/01/15 09:32:46;;;;;;;24.70;16.90;;;;;;;8.71;92.80;100107.97;5047463;28;20251;-74
2023/01/15 09:35:13;;;;;;;26.13;16.20;;;;;;;8.47;93.50;100115.09;5045117;28;20254;-73
2023/01/15 09:37:39;;;;;;;27.13;19.73;;;;;;;8.59;94.38;100106.66;5051873;28;20254;-73
2023/01/15 09:40:08;;;;;;;19.30;14.40;;;;;;;8.73;94.40;100094.50;5051566;28;20246;-74
2023/01/15 09:42:46;;;;;;;21.47;14.73;;;;;;;8.91;93.43;100103.09;5051807;28;20228;-74
2023/01/15 09:45:22;;;;;;;20.30;13.90;;;;;;;9.03;92.93;100104.38;5042355;28;20185;-74
2023/01/15 09:48:05;;;;;;;17.47;13.40;;;;;;;9.08;91.21;100096.72;5032377;28;20255;-74
2023/01/15 09:50:46;;;;;;;16.20;13.00;;;;;;;8.90;90.34;100106.75;5031358;28;20185;-73
2023/01/15 09:53:35;;;;;;;14.90;12.53;;;;;;;8.50;90.86;100101.53;5031731;28;20711;-73
2023/01/15 09:56:03;;;;;;;17.03;13.27;;;;;;;8.56;92.83;100098.19;5031622;28;20225;-73
2023/01/15 09:58:34;;;;;;;20.07;13.97;;;;;;;8.73;92.83;100091.88;5034508;28;20231;-74
2023/01/15 10:01:01;;;;;;;16.33;13.43;;;;;;;8.80;92.67;100093.69;5051212;28;20192;-73
2023/01/15 10:03:39;;;;;;;19.50;14.63;;;;;;;8.85;91.75;100091.34;5051572;28;20200;-75
2023/01/15 10:06:12;;;;;;;19.60;14.23;;;;;;;8.85;91.45;100083.41;5051837;28;20243;-73
2023/01/15 10:08:44;;;;;;;15.63;12.47;;;;;;;8.95;91.38;100076.06;5049261;28;20209;-74
2023/01/15 10:12:34;;;;;;;16.63;13.53;;;;;;;9.03;90.32;100076.03;5038126;28;20562;-74
2023/01/15 10:14:38;;;;;;;16.27;13.77;;;;;;;9.06;91.54;100064.25;5050944;28;20593;-73
2023/01/15 10:17:12;;;;;;;18.50;13.40;;;;;;;9.08;90.23;100064.94;5051232;28;20193;-74
2023/01/15 10:19:40;;;;;;;12.83;11.57;;;;;;;9.10;90.29;100060.28;5050543;28;20667;-74
2023/01/15 10:22:17;;;;;;;12.77;10.17;;;;;;;9.23;90.70;100063.22;5050432;28;20257;-74
2023/01/15 10:24:55;;;;;;;12.47;11.17;;;;;;;9.30;89.78;100050.91;5051450;28;20707;-74
2023/01/15 10:27:24;;;;;;;12.70;10.87;;;;;;;9.37;89.73;100046.56;5051422;28;20242;-74
2023/01/15 10:29:57;;;;;;;12.67;11.10;;;;;;;9.32;88.88;100044.41;5047794;28;20715;-73
2023/01/15 10:32:33;;;;;;;14.10;10.07;;;;;;;9.34;88.57;100049.53;5051357;28;20188;-74
2023/01/15 10:35:20;;;;;;;12.70;10.93;;;;;;;9.33;88.63;100029.34;5050801;28;20211;-73
2023/01/15 10:37:51;;;;;;;10.93;9.70;;;;;;;9.47;88.84;100037.38;5031031;28;20657;-74
2023/01/15 10:40:36;;;;;;;10.37;9.47;;;;;;;9.48;88.10;100028.41;5041173;28;20256;-74
2023/01/15 10:43:10;;;;;;;11.17;9.90;;;;;;;9.31;89.13;100028.72;5050747;28;20181;-74
2023/01/15 10:45:42;;;;;;;12.70;11.40;;;;;;;9.33;89.40;100005.50;5051443;28;20246;-75
2023/01/15 10:48:14;;;;;;;9.13;8.23;;;;;;;9.41;88.79;100016.03;5054510;28;20208;-74
2023/01/15 10:50:42;;;;;;;9.43;8.33;;;;;;;9.43;89.31;100027.28;5054849;28;20640;-74
2023/01/15 10:53:17;;;;;;;7.53;6.93;;;;;;;9.46;88.08;100013.69;5053377;28;20242;-75
2023/01/15 10:55:48;;;;;;;11.27;7.93;;;;;;;9.46;87.33;100013.69;5055142;28;20188;-74
2023/01/15 10:58:24;;;;;;;8.97;8.03;;;;;;;9.49;89.01;100010.69;5054399;28;20668;-74
2023/01/15 11:00:56;;;;;;;11.13;10.10;;;;;;;9.54;88.23;100009.16;5054419;28;20184;-74
2023/01/15 11:03:34;;;;;;;9.60;8.70;;;;;;;9.47;88.78;99996.75;5051852;28;20654;-74
2023/01/15 11:06:02;;;;;;;13.67;11.27;;;;;;;9.45;88.35;99998.78;5034803;28;20189;-74
2023/01/15 11:08:31;;;;;;;12.67;8.90;;;;;;;9.40;88.88;99972.78;5034478;28;20221;-74
2023/01/15 11:10:58;;;;;;;12.47;9.83;;;;;;;9.59;88.09;99987.41;5034391;28;20256;-74
2023/01/15 11:21:49;;;;;;;11.23;9.40;;;;;;;9.73;88.34;99978.69;5038230;28;20668;-74
2023/01/15 11:24:18;;;;;;;11.60;8.93;;;;;;;9.79;88.06;99977.94;5036556;28;20228;-74
2023/01/15 11:26:48;;;;;;;13.57;10.07;;;;;;;9.86;87.52;99984.19;5053998;28;20200;-74
2023/01/15 11:29:21;;;;;;;9.03;7.97;;;;;;;9.82;87.38;99975.78;5053275;28;20251;-73
2023/01/15 11:31:48;;;;;;;11.80;8.17;;;;;;;9.81;87.15;99966.16;5053929;28;20216;-74
2023/01/15 11:34:19;;;;;;;12.20;9.33;;;;;;;9.90;86.94;99969.56;5053901;28;20200;-74
2023/01/15 11:36:48;;;;;;;9.30;7.83;;;;;;;9.91;85.81;99963.25;5053690;28;20204;-72
2023/01/15 11:39:25;;;;;;;13.53;8.83;;;;;;;9.88;85.94;99968.91;5043010;28;20201;-71
2023/01/15 11:53:08;;;;;;;11.97;8.97;;;;;;;9.80;84.95;99947.78;5044302;28;20231;-69
2023/01/15 11:55:35;;;;;;;11.13;8.97;;;;;;;9.78;85.63;99944.47;5036191;28;20243;-70
2023/01/15 11:58:02;;;;;;;11.97;9.60;;;;;;;9.82;85.44;99946.59;5036687;28;20200;-73
2023/01/15 12:00:34;;;;;;;9.53;8.57;;;;;;;9.80;84.52;99947.78;5052202;28;20219;-68
2023/01/15 12:03:05;;;;;;;14.80;10.00;;;;;;;9.75;85.26;99944.81;5046975;28;20181;-70
2023/01/15 12:05:35;;;;;;;12.27;10.20;;;;;;;9.79;85.94;99932.84;5039302;28;20182;-69
2023/01/15 12:08:16;;;;;;;16.60;10.43;;;;;;;9.80;86.31;99927.38;5048138;28;20204;-69